To NAV CANADA Home Page Login to a new session Search on AWWS site Disclaimer Vers la page française équivalente Tips FAQ What's new on the site To the Forecasts and Observations / NOTAM section To "File a Flight Plan" website Publications and other links Update of the User's profile FIC Telephone Numbers My Weather Data Folder Route Weather Data Regional Weather Data Local Weather Data To the Forecasts and Observations / NOTAM section
Request Generated 07/10/2020 at 12:52:03 UTC . Weather information available at that time is displayed.

METAR/TAF

TORONTO/OSHAWA EXECUTIVE AIRPORT/ON    (show WxCam)

METAR CYOO 101200Z AUTO 11005KT 9SM SCT160 25/23 A2988 RMK SLP116 DENSITY ALT 1700FT=
METAR CYOO 101100Z AUTO 11005KT 9SM BKN130 OVC150 24/22 A2988 RMK SLP116 DENSITY ALT 1600FT=
METAR CYOO 101000Z AUTO 07003KT 060V120 9SM BKN110 OVC140 24/23 A2987 RMK SLP113 DENSITY ALT 1600FT=

TAF CYOO 100738Z 1008/1020 VRB03KT P6SM BKN160 TEMPO 1008/1012 2SM BR
FM101200 13008KT P6SM FEW060 FEW240
RMK FCST BASED ON AUTO OBS. NXT FCST BY 101400Z=
Your time UTC time
Weather data provided by Environment Canada and NAV CANADA